createdAt,value
2023-02-21T00:00:08.453Z,7.15
2023-02-21T00:03:22.021Z,7.13
2023-02-21T00:06:08.947Z,7.12
2023-02-21T00:08:55.956Z,7.11
2023-02-21T00:11:42.885Z,7.09
2023-02-21T00:14:29.533Z,7.18
2023-02-21T00:17:16.294Z,7.23
2023-02-21T00:20:02.792Z,7.19
2023-02-21T00:22:50.031Z,7.15
2023-02-21T00:25:37.150Z,7.13
2023-02-21T00:28:23.801Z,7.10
2023-02-21T00:31:11.030Z,7.06
2023-02-21T00:33:57.992Z,7.02
2023-02-21T00:36:45.117Z,7.01
2023-02-21T00:39:32.441Z,7.10
2023-02-21T00:42:19.187Z,7.14
2023-02-21T00:45:06.570Z,7.12
2023-02-21T00:47:53.902Z,7.10
2023-02-21T00:50:40.708Z,7.15
2023-02-21T00:53:27.620Z,7.15
2023-02-21T00:56:14.787Z,7.08
2023-02-21T00:59:01.949Z,7.05
2023-02-21T01:01:48.865Z,7.05
2023-02-21T01:04:37.474Z,7.02
2023-02-21T01:07:24.712Z,7.03
2023-02-21T01:10:11.721Z,7.04
2023-02-21T01:12:58.251Z,6.99
2023-02-21T01:15:45.452Z,6.91
2023-02-21T01:18:33.750Z,6.86
2023-02-21T01:21:23.235Z,6.87
2023-02-21T01:24:10.008Z,6.85
2023-02-21T01:26:57.987Z,6.87
2023-02-21T01:29:45.005Z,6.88
2023-02-21T01:32:32.436Z,6.86
2023-02-21T01:35:19.557Z,6.78
2023-02-21T01:38:06.592Z,6.78
2023-02-21T01:40:53.647Z,6.84
2023-02-21T01:43:43.062Z,6.86
2023-02-21T01:46:33.870Z,6.86
2023-02-21T01:49:35.311Z,6.86
2023-02-21T01:52:23.477Z,6.87
2023-02-21T01:55:14.297Z,6.82
2023-02-21T01:58:04.895Z,6.76
2023-02-21T02:00:52.397Z,6.74
2023-02-21T02:03:41.383Z,6.72
2023-02-21T02:06:35.598Z,6.69
2023-02-21T02:09:39.811Z,6.66
2023-02-21T02:12:24.454Z,6.73
2023-02-21T02:14:59.206Z,6.74
2023-02-21T02:17:46.144Z,6.71
2023-02-21T02:20:14.262Z,6.73
2023-02-21T02:23:03.874Z,6.68
2023-02-21T02:26:04.277Z,6.63
2023-02-21T02:28:53.974Z,6.61
2023-02-21T02:31:51.772Z,6.55
2023-02-21T02:34:39.462Z,6.54
2023-02-21T02:37:14.810Z,6.55
2023-02-21T02:39:58.005Z,6.58
2023-02-21T02:42:41.463Z,6.59
2023-02-21T02:45:20.864Z,6.53
2023-02-21T02:47:55.599Z,6.47
2023-02-21T02:50:26.918Z,6.40
2023-02-21T02:53:02.842Z,6.39
2023-02-21T02:55:34.493Z,6.51
2023-02-21T02:58:04.053Z,6.51
2023-02-21T03:00:35.276Z,6.59
2023-02-21T03:03:36.185Z,6.55
2023-02-21T03:06:24.188Z,6.60
2023-02-21T03:09:11.493Z,6.59
2023-02-21T03:12:00.989Z,6.59
2023-02-21T03:15:09.396Z,6.51
2023-02-21T03:17:42.782Z,6.41
2023-02-21T03:20:14.146Z,6.42
2023-02-21T03:22:45.509Z,6.44
2023-02-21T03:25:15.700Z,6.42
2023-02-21T03:27:49.651Z,6.48
2023-02-21T03:30:25.286Z,6.43
2023-02-21T03:32:55.322Z,6.43
2023-02-21T03:35:29.998Z,6.38
2023-02-21T03:37:58.983Z,6.44
2023-02-21T03:40:33.866Z,6.43
2023-02-21T03:43:07.385Z,6.37
2023-02-21T03:45:47.954Z,6.32
2023-02-21T03:48:30.918Z,6.30
2023-02-21T03:51:02.065Z,6.27
2023-02-21T03:53:34.533Z,6.16
2023-02-21T03:56:03.937Z,6.08
2023-02-21T03:58:40.355Z,6.06
2023-02-21T04:01:09.429Z,5.98
2023-02-21T04:03:37.880Z,5.98
2023-02-21T04:06:06.606Z,6.01
2023-02-21T04:08:34.952Z,6.03
2023-02-21T04:11:03.289Z,5.98
2023-02-21T04:13:35.527Z,5.96
2023-02-21T04:16:04.857Z,5.95
2023-02-21T04:18:37.590Z,5.96
2023-02-21T04:21:07.308Z,5.96
2023-02-21T04:23:35.883Z,5.99
2023-02-21T04:26:05.801Z,5.91
2023-02-21T04:28:40.653Z,5.85
2023-02-21T04:31:09.324Z,5.81
2023-02-21T04:33:37.770Z,5.79
2023-02-21T04:36:06.699Z,5.80
2023-02-21T04:38:43.381Z,5.82
2023-02-21T04:41:12.247Z,5.72
2023-02-21T04:43:43.383Z,5.71
2023-02-21T04:46:16.144Z,5.77
2023-02-21T04:48:46.471Z,5.79
2023-02-21T04:51:17.071Z,5.84
2023-02-21T04:53:48.524Z,5.87
2023-02-21T04:56:21.089Z,5.83
2023-02-21T04:58:50.012Z,5.70
2023-02-21T05:01:19.511Z,5.67
2023-02-21T05:03:48.685Z,5.66
2023-02-21T05:06:19.073Z,5.71
2023-02-21T05:08:47.702Z,5.76
2023-02-21T05:11:16.987Z,5.76
2023-02-21T05:13:46.524Z,5.78
2023-02-21T05:16:14.765Z,5.80
2023-02-21T05:18:44.333Z,5.77
2023-02-21T05:21:13.836Z,5.78
2023-02-21T05:23:43.275Z,5.75
2023-02-21T05:26:13.789Z,5.69
2023-02-21T05:28:42.125Z,5.64
2023-02-21T05:31:10.438Z,5.63
2023-02-21T05:33:38.772Z,5.68
2023-02-21T05:36:08.282Z,5.69
2023-02-21T05:38:51.773Z,5.69
2023-02-21T05:41:20.622Z,5.69
2023-02-21T05:43:49.917Z,5.69
2023-02-21T05:46:19.843Z,5.66
2023-02-21T05:49:39.204Z,5.64
2023-02-21T05:52:08.770Z,5.60
2023-02-21T05:54:37.503Z,5.60
2023-02-21T05:57:06.290Z,5.63
2023-02-21T05:59:36.037Z,5.67
2023-02-21T06:02:04.813Z,5.74
2023-02-21T06:04:34.792Z,5.79
2023-02-21T06:07:03.818Z,5.78
2023-02-21T06:09:32.389Z,5.77
2023-02-21T06:12:00.595Z,5.82
2023-02-21T06:14:28.756Z,5.94
2023-02-21T06:16:57.123Z,6.06
2023-02-21T06:19:25.192Z,6.10
2023-02-21T06:21:53.473Z,6.07
2023-02-21T06:24:21.753Z,6.08
2023-02-21T06:26:50.028Z,6.15
2023-02-21T06:29:18.384Z,6.43
2023-02-21T06:31:46.778Z,6.57
2023-02-21T06:34:15.537Z,6.66
2023-02-21T06:36:43.611Z,6.81
2023-02-21T06:39:12.775Z,6.99
2023-02-21T06:41:41.028Z,7.11
2023-02-21T06:44:09.859Z,7.15
2023-02-21T06:46:39.133Z,7.12
2023-02-21T06:49:07.343Z,7.06
2023-02-21T06:51:40.706Z,7.07
2023-02-21T06:54:10.002Z,7.10
2023-02-21T06:56:39.026Z,7.13
2023-02-21T06:59:07.128Z,7.18
2023-02-21T07:01:35.513Z,7.21
2023-02-21T07:04:03.938Z,7.34
2023-02-21T07:06:33.642Z,7.31
2023-02-21T07:09:33.166Z,7.29
2023-02-21T07:12:03.487Z,7.27
2023-02-21T07:14:31.662Z,7.28
2023-02-21T07:17:00.365Z,7.23
2023-02-21T07:19:28.834Z,7.23
2023-02-21T07:21:57.018Z,7.26
2023-02-21T07:24:25.362Z,7.30
2023-02-21T07:26:55.810Z,7.26
2023-02-21T07:29:24.785Z,7.22
2023-02-21T07:31:53.042Z,7.14
2023-02-21T07:34:23.075Z,7.07
2023-02-21T07:36:51.387Z,7.04
2023-02-21T07:39:19.922Z,6.95
2023-02-21T07:41:48.123Z,6.88
2023-02-21T07:44:23.562Z,6.85
2023-02-21T07:46:51.897Z,6.80
2023-02-21T07:49:20.258Z,6.84
2023-02-21T07:51:48.444Z,6.87
2023-02-21T07:54:18.328Z,6.94
2023-02-21T07:56:48.680Z,7.04
2023-02-21T07:59:17.111Z,7.15
2023-02-21T08:01:46.288Z,7.32
2023-02-21T08:04:15.088Z,7.54
2023-02-21T08:06:43.482Z,7.63
2023-02-21T08:09:11.920Z,7.70
2023-02-21T08:11:40.713Z,7.76
2023-02-21T08:14:09.078Z,7.80
2023-02-21T08:16:37.592Z,7.79
2023-02-21T08:19:05.842Z,7.78
2023-02-21T08:21:34.022Z,7.81
2023-02-21T08:24:02.414Z,8.03
2023-02-21T08:26:30.934Z,8.33
2023-02-21T08:28:59.269Z,8.56
2023-02-21T08:31:27.549Z,8.78
2023-02-21T08:33:55.936Z,9.02
2023-02-21T08:36:32.938Z,9.20
2023-02-21T08:39:01.792Z,9.21
2023-02-21T08:41:42.432Z,9.27
2023-02-21T08:44:12.935Z,9.33
2023-02-21T08:46:41.336Z,9.37
2023-02-21T08:49:10.584Z,9.39
2023-02-21T08:51:40.490Z,9.52
2023-02-21T08:54:08.875Z,9.69
2023-02-21T08:56:37.455Z,9.65
2023-02-21T08:59:06.072Z,9.69
2023-02-21T09:01:36.193Z,9.76
2023-02-21T09:04:05.692Z,9.83
2023-02-21T09:06:34.259Z,9.81
2023-02-21T09:09:02.661Z,9.85
2023-02-21T09:11:31.228Z,10.04
2023-02-21T09:13:59.604Z,10.27
2023-02-21T09:16:27.917Z,10.35
2023-02-21T09:18:59.345Z,10.46
2023-02-21T09:21:28.520Z,10.50
2023-02-21T09:23:59.353Z,10.89
2023-02-21T09:26:31.935Z,11.04
2023-02-21T09:29:00.641Z,11.02
2023-02-21T09:31:28.906Z,11.42
2023-02-21T09:33:57.041Z,11.50
2023-02-21T09:36:27.131Z,11.62
2023-02-21T09:38:55.299Z,11.95
2023-02-21T09:41:23.885Z,11.96
2023-02-21T09:43:55.125Z,12.13
2023-02-21T09:46:41.455Z,12.27
2023-02-21T09:49:36.156Z,12.29
2023-02-21T09:52:05.687Z,12.13
2023-02-21T09:54:45.116Z,11.94
2023-02-21T09:57:18.594Z,11.68
2023-02-21T09:59:49.146Z,11.37
2023-02-21T10:02:41.260Z,11.18
2023-02-21T10:05:30.012Z,11.08
2023-02-21T10:08:43.648Z,10.91
2023-02-21T10:11:43.147Z,10.94
2023-02-21T10:14:30.293Z,10.93
2023-02-21T10:17:05.315Z,10.83
2023-02-21T10:19:42.040Z,10.83
2023-02-21T10:22:16.392Z,10.86
2023-02-21T10:24:44.994Z,10.87
2023-02-21T10:27:23.456Z,10.95
2023-02-21T10:30:05.900Z,11.05
2023-02-21T10:32:34.611Z,11.09
2023-02-21T10:35:03.084Z,11.13
2023-02-21T10:37:41.201Z,11.32
2023-02-21T10:40:45.624Z,11.31
2023-02-21T10:43:22.194Z,11.33
2023-02-21T10:46:03.113Z,11.46
2023-02-21T10:48:36.167Z,11.56
2023-02-21T10:51:06.383Z,11.62
2023-02-21T10:53:37.763Z,11.49
2023-02-21T10:56:19.639Z,11.29
2023-02-21T10:58:53.452Z,11.18
2023-02-21T11:01:30.432Z,11.11
2023-02-21T11:04:26.042Z,11.06
2023-02-21T11:06:56.249Z,10.92
2023-02-21T11:09:27.650Z,10.96
2023-02-21T11:12:20.582Z,10.90
2023-02-21T11:14:52.552Z,10.94
2023-02-21T11:17:25.253Z,11.01
2023-02-21T11:20:18.588Z,10.98
2023-02-21T11:22:49.542Z,10.94
2023-02-21T11:25:19.038Z,10.92
2023-02-21T11:28:06.978Z,10.91
2023-02-21T11:30:44.443Z,10.90
2023-02-21T11:33:13.055Z,10.76
2023-02-21T11:35:46.564Z,10.73
2023-02-21T11:38:36.729Z,10.67
2023-02-21T11:41:18.281Z,10.67
2023-02-21T11:43:48.466Z,10.57
2023-02-21T11:46:27.127Z,10.55
2023-02-21T11:49:19.121Z,10.38
2023-02-21T11:51:59.218Z,10.29
2023-02-21T11:54:33.045Z,10.30
2023-02-21T11:57:01.165Z,10.38
2023-02-21T11:59:41.334Z,10.41
2023-02-21T12:02:31.387Z,10.44
2023-02-21T12:05:11.968Z,10.53
2023-02-21T12:08:35.349Z,10.65
2023-02-21T12:11:25.438Z,10.80
2023-02-21T12:14:06.354Z,10.84
2023-02-21T12:16:40.416Z,11.00
2023-02-21T12:19:18.012Z,11.15
2023-02-21T12:21:46.392Z,11.35
2023-02-21T12:24:45.502Z,11.40
2023-02-21T12:27:51.098Z,11.43
2023-02-21T12:30:23.863Z,11.46
2023-02-21T12:33:09.622Z,11.62
2023-02-21T12:36:06.780Z,11.60
2023-02-21T12:39:00.749Z,11.60
2023-02-21T12:41:45.256Z,11.55
2023-02-21T12:44:18.339Z,11.39
2023-02-21T12:46:55.659Z,11.21
2023-02-21T12:49:26.647Z,11.05
2023-02-21T12:52:04.664Z,11.01
2023-02-21T12:55:00.148Z,10.96
2023-02-21T12:57:52.828Z,10.66
2023-02-21T13:00:25.833Z,10.64
2023-02-21T13:02:54.053Z,10.66
2023-02-21T13:05:34.379Z,10.79
2023-02-21T13:08:14.602Z,10.91
2023-02-21T13:11:00.480Z,10.96
2023-02-21T13:13:33.316Z,11.02
2023-02-21T13:16:05.211Z,11.06
2023-02-21T13:18:38.908Z,11.22
2023-02-21T13:21:25.807Z,11.33
2023-02-21T13:24:16.435Z,11.42
2023-02-21T13:27:13.937Z,11.38
2023-02-21T13:29:43.237Z,11.23
2023-02-21T13:32:17.370Z,11.08
2023-02-21T13:35:05.545Z,10.90
2023-02-21T13:37:36.030Z,10.80
2023-02-21T13:40:25.097Z,10.78
2023-02-21T13:43:16.383Z,10.67
2023-02-21T13:45:45.846Z,10.62
2023-02-21T13:48:24.694Z,10.57
2023-02-21T13:50:55.627Z,10.52
2023-02-21T13:53:33.243Z,10.51
2023-02-21T13:56:07.708Z,10.52
2023-02-21T13:58:45.926Z,10.53
2023-02-21T14:01:43.990Z,10.53
2023-02-21T14:04:51.491Z,10.60
2023-02-21T14:07:48.654Z,10.59
2023-02-21T14:10:24.717Z,10.53
2023-02-21T14:13:00.761Z,10.49
2023-02-21T14:15:45.225Z,10.50
2023-02-21T14:18:27.233Z,10.61
2023-02-21T14:20:57.476Z,10.65
2023-02-21T14:23:55.481Z,10.69
2023-02-21T14:27:01.946Z,10.64
2023-02-21T14:29:40.043Z,10.65
2023-02-21T14:32:08.588Z,10.60
2023-02-21T14:34:54.387Z,10.57
2023-02-21T14:37:24.942Z,10.57
2023-02-21T14:39:58.187Z,10.56
2023-02-21T14:43:02.686Z,10.49
2023-02-21T14:45:30.786Z,10.43
2023-02-21T14:48:32.287Z,10.38
2023-02-21T14:51:27.781Z,10.40
2023-02-21T14:54:04.814Z,10.45
2023-02-21T14:56:48.342Z,10.50
2023-02-21T14:59:25.793Z,10.53
2023-02-21T15:02:29.447Z,10.55
2023-02-21T15:05:39.668Z,10.52
2023-02-21T15:08:26.680Z,10.47
2023-02-21T15:11:01.828Z,10.43
2023-02-21T15:13:33.313Z,10.37
2023-02-21T15:16:08.215Z,10.36
2023-02-21T15:19:00.286Z,10.33
2023-02-21T15:21:28.934Z,10.28
2023-02-21T15:24:13.702Z,10.21
2023-02-21T15:26:42.176Z,10.15
2023-02-21T15:29:13.810Z,10.13
2023-02-21T15:31:49.109Z,10.10
2023-02-21T15:34:27.285Z,10.08
2023-02-21T15:37:09.004Z,10.04
2023-02-21T15:39:40.843Z,10.01
2023-02-21T15:42:11.792Z,10.02
2023-02-21T15:44:48.615Z,10.00
2023-02-21T15:47:21.256Z,9.94
2023-02-21T15:50:02.142Z,9.89
2023-02-21T15:52:51.691Z,9.83
2023-02-21T15:55:20.019Z,9.79
2023-02-21T15:58:08.375Z,9.75
2023-02-21T16:00:38.921Z,9.74
2023-02-21T16:03:29.408Z,9.71
2023-02-21T16:06:25.479Z,9.70
2023-02-21T16:09:07.276Z,9.66
2023-02-21T16:11:49.611Z,9.64
2023-02-21T16:14:21.138Z,9.62
2023-02-21T16:16:54.221Z,9.60
2023-02-21T16:19:23.895Z,9.62
2023-02-21T16:22:14.824Z,9.65
2023-02-21T16:24:43.091Z,9.61
2023-02-21T16:27:14.707Z,9.55
2023-02-21T16:29:42.962Z,9.52
2023-02-21T16:32:19.700Z,9.52
2023-02-21T16:34:51.718Z,9.52
2023-02-21T16:37:20.291Z,9.53
2023-02-21T16:39:49.288Z,9.53
2023-02-21T16:42:17.382Z,9.53
2023-02-21T16:44:48.035Z,9.49
2023-02-21T16:47:17.440Z,9.47
2023-02-21T16:49:45.691Z,9.46
2023-02-21T16:52:15.439Z,9.42
2023-02-21T16:54:44.192Z,9.44
2023-02-21T16:57:12.384Z,9.41
2023-02-21T16:59:40.634Z,9.41
2023-02-21T17:02:14.829Z,9.40
2023-02-21T17:04:43.685Z,9.40
2023-02-21T17:07:11.925Z,9.39
2023-02-21T17:09:41.084Z,9.38
2023-02-21T17:12:12.716Z,9.36
2023-02-21T17:14:41.069Z,9.36
2023-02-21T17:17:09.480Z,9.34
2023-02-21T17:19:37.757Z,9.32
2023-02-21T17:22:05.916Z,9.32
2023-02-21T17:24:34.309Z,9.30
2023-02-21T17:27:02.550Z,9.29
2023-02-21T17:29:30.718Z,9.26
2023-02-21T17:31:59.038Z,9.24
2023-02-21T17:34:27.488Z,9.26
2023-02-21T17:36:55.701Z,9.23
2023-02-21T17:39:24.167Z,9.25
2023-02-21T17:41:53.344Z,9.23
2023-02-21T17:44:22.376Z,9.22
2023-02-21T17:46:52.882Z,9.22
2023-02-21T17:49:24.948Z,9.20
2023-02-21T17:51:53.730Z,9.19
2023-02-21T17:54:24.502Z,9.18
2023-02-21T17:56:52.742Z,9.17
2023-02-21T17:59:22.315Z,9.13
2023-02-21T18:01:55.368Z,9.12
2023-02-21T18:04:24.891Z,9.12
2023-02-21T18:06:53.232Z,9.12
2023-02-21T18:09:21.439Z,9.10
2023-02-21T18:11:52.682Z,9.07
2023-02-21T18:14:23.084Z,9.06
2023-02-21T18:16:51.516Z,9.05
2023-02-21T18:19:19.743Z,9.06
2023-02-21T18:21:47.988Z,9.02
2023-02-21T18:24:18.956Z,8.99
2023-02-21T18:26:47.651Z,8.99
2023-02-21T18:29:15.827Z,8.94
2023-02-21T18:31:44.475Z,8.95
2023-02-21T18:34:12.898Z,8.93
2023-02-21T18:36:50.582Z,8.92
2023-02-21T18:39:21.423Z,8.85
2023-02-21T18:41:50.377Z,8.82
2023-02-21T18:44:18.404Z,8.78
2023-02-21T18:46:54.758Z,8.77
2023-02-21T18:49:23.675Z,8.75
2023-02-21T18:51:52.863Z,8.73
2023-02-21T18:54:21.336Z,8.71
2023-02-21T18:56:52.313Z,8.69
2023-02-21T18:59:22.615Z,8.66
2023-02-21T19:01:53.125Z,8.65
2023-02-21T19:04:21.456Z,8.65
2023-02-21T19:06:49.722Z,8.61
2023-02-21T19:09:18.093Z,8.57
2023-02-21T19:11:46.260Z,8.56
2023-02-21T19:14:14.364Z,8.52
2023-02-21T19:16:42.997Z,8.51
2023-02-21T19:19:11.295Z,8.49
2023-02-21T19:21:39.377Z,8.44
2023-02-21T19:24:07.980Z,8.44
2023-02-21T19:26:36.274Z,8.42
2023-02-21T19:29:04.769Z,8.43
2023-02-21T19:31:33.131Z,8.39
2023-02-21T19:34:01.787Z,8.34
2023-02-21T19:36:29.966Z,8.27
2023-02-21T19:38:58.240Z,8.27
2023-02-21T19:41:28.289Z,8.23
2023-02-21T19:43:56.537Z,8.24
2023-02-21T19:46:28.200Z,8.23
2023-02-21T19:48:57.300Z,8.19
2023-02-21T19:51:28.921Z,8.17
2023-02-21T19:53:59.359Z,8.15
2023-02-21T19:56:28.617Z,8.15
2023-02-21T19:58:58.294Z,8.13
2023-02-21T20:01:26.682Z,8.11
2023-02-21T20:03:57.727Z,8.11
2023-02-21T20:06:28.044Z,8.13
2023-02-21T20:08:56.665Z,8.13
2023-02-21T20:11:24.801Z,8.09
2023-02-21T20:13:53.487Z,8.08
2023-02-21T20:16:22.534Z,8.06
2023-02-21T20:18:52.102Z,8.04
2023-02-21T20:21:30.844Z,8.03
2023-02-21T20:24:00.236Z,8.01
2023-02-21T20:26:29.537Z,7.98
2023-02-21T20:28:57.684Z,7.97
2023-02-21T20:31:32.706Z,7.95
2023-02-21T20:34:05.675Z,7.94
2023-02-21T20:36:40.272Z,7.93
2023-02-21T20:39:28.358Z,7.91
2023-02-21T20:41:57.562Z,7.88
2023-02-21T20:44:26.376Z,7.88
2023-02-21T20:46:57.017Z,7.84
2023-02-21T20:49:25.503Z,7.83
2023-02-21T20:51:54.169Z,7.81
2023-02-21T20:54:22.913Z,7.82
2023-02-21T20:56:53.859Z,7.80
2023-02-21T20:59:26.565Z,7.81
2023-02-21T21:01:55.700Z,7.79
2023-02-21T21:04:29.401Z,7.80
2023-02-21T21:07:00.927Z,7.80
2023-02-21T21:09:34.309Z,7.79
2023-02-21T21:12:06.019Z,7.79
2023-02-21T21:14:37.502Z,7.79
2023-02-21T21:17:06.367Z,7.80
2023-02-21T21:19:35.050Z,7.75
2023-02-21T21:22:06.043Z,7.74
2023-02-21T21:24:34.168Z,7.71
2023-02-21T21:27:10.021Z,7.71
2023-02-21T21:29:43.172Z,7.72
2023-02-21T21:32:17.269Z,7.70
2023-02-21T21:34:51.904Z,7.70
2023-02-21T21:37:26.793Z,7.69
2023-02-21T21:39:56.615Z,7.68
2023-02-21T21:42:28.860Z,7.68
2023-02-21T21:44:57.697Z,7.64
2023-02-21T21:47:29.013Z,7.60
2023-02-21T21:49:57.634Z,7.64
2023-02-21T21:52:25.831Z,7.66
2023-02-21T21:54:53.864Z,7.65
2023-02-21T21:57:22.997Z,7.67
2023-02-21T21:59:51.334Z,7.63
2023-02-21T22:02:20.400Z,7.60
2023-02-21T22:04:48.534Z,7.56
2023-02-21T22:07:17.608Z,7.54
2023-02-21T22:09:46.535Z,7.54
2023-02-21T22:12:18.588Z,7.53
2023-02-21T22:14:46.834Z,7.50
2023-02-21T22:17:15.262Z,7.50
2023-02-21T22:19:43.395Z,7.49
2023-02-21T22:22:11.466Z,7.51
2023-02-21T22:24:40.756Z,7.49
2023-02-21T22:27:09.685Z,7.50
2023-02-21T22:29:37.979Z,7.49
2023-02-21T22:32:08.400Z,7.51
2023-02-21T22:34:36.744Z,7.51
2023-02-21T22:37:05.240Z,7.50
2023-02-21T22:39:33.568Z,7.48
2023-02-21T22:42:05.366Z,7.50
2023-02-21T22:44:33.419Z,7.48
2023-02-21T22:47:01.617Z,7.45
2023-02-21T22:49:30.830Z,7.47
2023-02-21T22:51:59.158Z,7.46
2023-02-21T22:54:27.381Z,7.44
2023-02-21T22:57:04.583Z,7.45
2023-02-21T22:59:35.611Z,7.44
2023-02-21T23:02:04.195Z,7.43
2023-02-21T23:04:37.570Z,7.40
2023-02-21T23:07:06.498Z,7.36
2023-02-21T23:09:37.531Z,7.33
2023-02-21T23:12:06.411Z,7.27
2023-02-21T23:14:39.544Z,7.25
2023-02-21T23:17:07.588Z,7.26
2023-02-21T23:19:35.618Z,7.26
2023-02-21T23:22:05.482Z,7.28
2023-02-21T23:24:34.063Z,7.29
2023-02-21T23:27:03.228Z,7.26
2023-02-21T23:29:31.729Z,7.23
2023-02-21T23:32:09.899Z,7.20
2023-02-21T23:34:41.344Z,7.21
2023-02-21T23:37:12.811Z,7.17
2023-02-21T23:39:42.201Z,7.16
2023-02-21T23:42:11.397Z,7.14
2023-02-21T23:44:39.814Z,7.14
2023-02-21T23:47:08.225Z,7.09
2023-02-21T23:49:40.811Z,7.08
2023-02-21T23:52:09.655Z,6.99
2023-02-21T23:54:38.715Z,6.92
2023-02-21T23:57:07.795Z,6.86
2023-02-21T23:59:36.008Z,6.83
